Time;durP1;ratioP1;P1;durP2;ratioP2;P2;SDS_P1;SDS_P2;PMS_P1;PMS_P2;Temp;Humidity;BMP_temperature;BMP_pressure;BME280_temperature;BME280_humidity;BME280_pressure;Samples;Min_cycle;Max_cycle;Signal;HPM_P1;HPM_P2
2021/10/21 00:01:12;;;;;;;0.40;0.40;;;;;;;5.23;100.00;98286.97;5017107;28;20065;-72
2021/10/21 00:03:38;;;;;;;0.40;0.40;;;;;;;5.25;100.00;98282.28;5018556;28;20052;-72
2021/10/21 00:06:04;;;;;;;0.40;0.40;;;;;;;5.29;100.00;98281.00;5018087;28;20040;-70
2021/10/21 00:08:30;;;;;;;0.40;0.40;;;;;;;5.32;100.00;98267.28;5017070;28;20101;-70
2021/10/21 00:10:56;;;;;;;0.40;0.40;;;;;;;5.30;100.00;98247.84;5036207;28;20073;-70
2021/10/21 00:13:23;;;;;;;0.40;0.40;;;;;;;5.33;100.00;98242.16;5034799;28;20042;-68
2021/10/21 00:15:49;;;;;;;0.40;0.40;;;;;;;5.36;100.00;98233.84;5035555;28;20106;-69
2021/10/21 00:18:15;;;;;;;0.40;0.40;;;;;;;5.37;100.00;98229.31;5034441;28;20109;-70
2021/10/21 00:20:41;;;;;;;0.40;0.40;;;;;;;5.40;100.00;98232.53;5016986;28;20045;-71
2021/10/21 00:23:07;;;;;;;0.40;0.40;;;;;;;5.41;100.00;98215.47;5032903;28;20060;-71
2021/10/21 00:25:33;;;;;;;0.40;0.40;;;;;;;5.42;100.00;98198.41;5031289;28;20061;-68
2021/10/21 00:27:59;;;;;;;0.40;0.40;;;;;;;5.43;100.00;98177.78;5014858;28;20045;-72
2021/10/21 00:30:25;;;;;;;0.40;0.40;;;;;;;5.47;100.00;98200.59;5015559;28;20053;-70
2021/10/21 00:32:51;;;;;;;0.40;0.40;;;;;;;5.53;100.00;98205.34;5030832;28;20132;-69
2021/10/21 00:35:18;;;;;;;0.40;0.40;;;;;;;5.55;100.00;98198.81;5014393;28;20046;-68
2021/10/21 00:37:43;;;;;;;0.40;0.40;;;;;;;5.64;100.00;98215.84;5032164;28;20041;-69
2021/10/21 00:40:10;;;;;;;0.40;0.40;;;;;;;5.67;100.00;98212.00;5031793;28;20049;-69
2021/10/21 00:42:36;;;;;;;0.40;0.40;;;;;;;5.72;100.00;98217.72;5030837;28;20107;-68
2021/10/21 00:45:03;;;;;;;0.40;0.40;;;;;;;5.77;100.00;98220.78;5031988;28;20065;-70
2021/10/21 00:47:29;;;;;;;0.40;0.40;;;;;;;5.85;100.00;98204.78;5013866;28;20041;-70
2021/10/21 00:49:55;;;;;;;0.40;0.40;;;;;;;5.91;100.00;98193.38;5032080;28;20055;-70
2021/10/21 00:52:22;;;;;;;0.40;0.40;;;;;;;5.94;100.00;98189.59;5032038;28;20049;-73
2021/10/21 00:54:48;;;;;;;0.40;0.40;;;;;;;5.99;100.00;98180.06;5035005;28;20144;-67
2021/10/21 00:57:14;;;;;;;0.40;0.40;;;;;;;6.02;100.00;98173.53;5016856;28;20065;-69
2021/10/21 00:59:41;;;;;;;0.40;0.40;;;;;;;6.04;100.00;98193.00;5035450;28;20132;-73
2021/10/21 01:02:08;;;;;;;0.40;0.40;;;;;;;6.07;100.00;98186.47;5035550;28;20053;-69
2021/10/21 01:04:34;;;;;;;0.40;0.40;;;;;;;6.10;100.00;98175.44;5016917;28;20141;-70
2021/10/21 01:07:00;;;;;;;0.40;0.40;;;;;;;6.09;100.00;98174.59;5032944;28;20140;-68
2021/10/21 01:09:26;;;;;;;0.40;0.40;;;;;;;6.11;100.00;98155.66;5030203;28;20100;-72
2021/10/21 01:11:52;;;;;;;0.40;0.40;;;;;;;6.11;100.00;98156.50;4997343;28;20041;-69
2021/10/21 01:14:19;;;;;;;0.40;0.40;;;;;;;6.16;100.00;98153.34;5013822;28;20497;-67
2021/10/21 01:16:44;;;;;;;0.40;0.40;;;;;;;6.19;100.00;98153.03;5032190;28;20136;-69
2021/10/21 01:19:28;;;;;;;0.40;0.40;;;;;;;6.20;100.00;98143.97;5029371;28;20479;-69
2021/10/21 01:21:55;;;;;;;0.40;0.40;;;;;;;6.25;100.00;98136.25;5031577;28;20049;-68
2021/10/21 01:24:24;;;;;;;0.40;0.40;;;;;;;6.29;100.00;98132.28;4997058;28;20041;-69
2021/10/21 01:26:52;;;;;;;0.40;0.40;;;;;;;6.34;100.00;98137.16;5031047;28;20041;-69
2021/10/21 01:29:20;;;;;;;0.40;0.40;;;;;;;6.37;100.00;98134.97;5029579;28;20136;-68
2021/10/21 01:31:46;;;;;;;0.40;0.40;;;;;;;6.41;100.00;98119.41;5029519;28;20049;-69
2021/10/21 01:34:13;;;;;;;0.40;0.40;;;;;;;6.44;100.00;98137.88;5029869;28;20049;-67
2021/10/21 01:36:40;;;;;;;0.40;0.40;;;;;;;6.44;100.00;98138.69;5012890;28;20161;-69
2021/10/21 01:39:10;;;;;;;0.40;0.40;;;;;;;6.48;100.00;98132.00;5029247;28;20053;-68
2021/10/21 01:41:36;;;;;;;0.30;0.30;;;;;;;6.51;100.00;98126.31;5029184;28;20453;-68
2021/10/21 01:44:04;;;;;;;0.40;0.40;;;;;;;6.53;100.00;98129.66;5030787;28;20078;-67
2021/10/21 01:46:29;;;;;;;0.30;0.30;;;;;;;6.55;100.00;98113.41;5030795;28;20044;-68
2021/10/21 01:48:55;;;;;;;0.30;0.30;;;;;;;6.57;100.00;98113.22;5030572;28;20049;-68
2021/10/21 01:51:21;;;;;;;0.40;0.40;;;;;;;6.58;100.00;98098.78;5029300;28;20045;-69
2021/10/21 01:53:47;;;;;;;0.32;0.32;;;;;;;6.59;100.00;98119.28;5029290;28;20052;-70
2021/10/21 01:56:13;;;;;;;0.30;0.30;;;;;;;6.58;100.00;98114.91;5012716;28;20085;-69
2021/10/21 01:58:38;;;;;;;0.38;0.38;;;;;;;6.65;100.00;98115.91;5030805;28;20049;-71
2021/10/21 02:01:04;;;;;;;0.40;0.40;;;;;;;6.64;100.00;98108.88;4996812;28;20074;-68
2021/10/21 02:03:30;;;;;;;0.40;0.40;;;;;;;6.67;100.00;98092.44;5013237;28;20053;-69
2021/10/21 02:05:56;;;;;;;0.30;0.30;;;;;;;6.70;100.00;98087.59;5031400;28;20464;-69
2021/10/21 02:08:22;;;;;;;0.30;0.30;;;;;;;6.72;100.00;98072.13;5029561;28;20095;-69
2021/10/21 02:10:48;;;;;;;0.40;0.40;;;;;;;6.72;100.00;98079.34;5029832;28;20052;-67
2021/10/21 02:13:14;;;;;;;0.40;0.40;;;;;;;6.76;100.00;98069.97;5029515;28;20045;-69
2021/10/21 02:15:40;;;;;;;0.30;0.30;;;;;;;6.80;100.00;98065.97;5030561;28;20148;-69
2021/10/21 02:18:06;;;;;;;0.30;0.30;;;;;;;6.82;100.00;98063.94;5030115;28;20615;-70
2021/10/21 02:20:32;;;;;;;0.40;0.40;;;;;;;6.87;100.00;98066.09;5031452;28;20072;-70
2021/10/21 02:22:58;;;;;;;0.40;0.40;;;;;;;6.90;100.00;98082.72;5032199;28;20056;-69
2021/10/21 02:25:24;;;;;;;0.40;0.40;;;;;;;6.94;100.00;98086.75;5032213;28;20052;-70
2021/10/21 02:27:51;;;;;;;0.40;0.40;;;;;;;6.98;100.00;98082.75;5031946;28;20049;-69
2021/10/21 02:30:17;;;;;;;0.40;0.40;;;;;;;7.01;100.00;98081.56;5016964;28;20045;-68
2021/10/21 02:32:45;;;;;;;0.40;0.40;;;;;;;7.05;100.00;98082.91;5034592;28;20114;-72
2021/10/21 02:35:11;;;;;;;0.30;0.30;;;;;;;7.09;100.00;98072.66;5033908;28;20041;-68
2021/10/21 02:37:38;;;;;;;0.40;0.40;;;;;;;7.11;100.00;98078.72;5033134;28;20045;-69
2021/10/21 02:40:05;;;;;;;0.32;0.32;;;;;;;7.17;100.00;98070.00;5033125;28;20061;-69
2021/10/21 02:42:31;;;;;;;0.40;0.40;;;;;;;7.20;100.00;98056.19;5032989;28;20057;-68
2021/10/21 02:44:56;;;;;;;0.40;0.40;;;;;;;7.22;100.00;98044.28;5015964;28;20528;-69
2021/10/21 02:47:22;;;;;;;0.30;0.30;;;;;;;7.26;100.00;98044.78;5034212;28;20274;-68
2021/10/21 02:49:48;;;;;;;0.30;0.30;;;;;;;7.29;100.00;98057.88;5016254;28;20045;-69
2021/10/21 02:52:14;;;;;;;0.30;0.30;;;;;;;7.32;100.00;98052.16;5034474;28;20619;-70
2021/10/21 02:54:39;;;;;;;0.30;0.30;;;;;;;7.33;100.00;98047.63;5035391;28;20049;-70
2021/10/21 02:57:05;;;;;;;0.30;0.30;;;;;;;7.36;100.00;98053.50;5034215;28;20493;-72
2021/10/21 02:59:31;;;;;;;0.30;0.30;;;;;;;7.39;100.00;98050.47;5034474;28;20412;-69
2021/10/21 03:01:57;;;;;;;0.30;0.30;;;;;;;7.43;100.00;98038.38;5032230;28;20037;-69
2021/10/21 03:04:22;;;;;;;0.30;0.30;;;;;;;7.44;100.00;98009.63;5015959;28;20050;-69
2021/10/21 03:06:48;;;;;;;0.30;0.30;;;;;;;7.50;100.00;98014.34;5032709;28;20034;-68
2021/10/21 03:09:14;;;;;;;0.30;0.30;;;;;;;7.53;100.00;98015.81;5015688;28;20042;-69
2021/10/21 03:11:39;;;;;;;0.30;0.30;;;;;;;7.62;100.00;98014.81;5015785;28;20051;-69
2021/10/21 03:14:05;;;;;;;0.30;0.30;;;;;;;7.61;100.00;98016.66;5031948;28;20080;-71
2021/10/21 03:16:34;;;;;;;0.30;0.30;;;;;;;7.69;100.00;98023.84;5015699;28;20045;-70
2021/10/21 03:19:04;;;;;;;0.30;0.30;;;;;;;7.69;100.00;98010.41;5031806;28;20084;-70
2021/10/21 03:21:30;;;;;;;0.38;0.38;;;;;;;7.74;100.00;98002.66;5033665;28;20137;-69
2021/10/21 03:23:56;;;;;;;0.30;0.30;;;;;;;7.78;100.00;97984.31;5015244;28;20135;-69
2021/10/21 03:26:23;;;;;;;0.30;0.30;;;;;;;7.83;100.00;97998.94;4999157;28;20045;-70
2021/10/21 03:28:49;;;;;;;0.30;0.30;;;;;;;7.85;100.00;97998.75;5032093;28;20124;-69
2021/10/21 03:31:14;;;;;;;0.30;0.30;;;;;;;7.86;100.00;97993.19;5033610;28;20145;-69
2021/10/21 03:33:40;;;;;;;0.30;0.30;;;;;;;7.89;100.00;97987.44;5034136;28;20069;-70
2021/10/21 03:36:06;;;;;;;0.30;0.30;;;;;;;7.93;100.00;97967.28;5035698;28;20049;-72
2021/10/21 03:38:32;;;;;;;0.30;0.30;;;;;;;7.97;100.00;97979.34;5035412;28;20080;-73
2021/10/21 03:41:00;;;;;;;0.30;0.30;;;;;;;8.00;100.00;97982.69;5015221;28;20049;-70
2021/10/21 03:43:25;;;;;;;0.30;0.30;;;;;;;8.03;100.00;97979.66;5033755;28;20045;-69
2021/10/21 03:45:52;;;;;;;0.30;0.30;;;;;;;8.03;99.76;97988.56;5033140;28;20095;-71
2021/10/21 03:48:18;;;;;;;0.40;0.40;;;;;;;8.04;99.72;97995.63;5032377;28;20411;-70
2021/10/21 03:50:44;;;;;;;0.30;0.30;;;;;;;8.10;99.93;97986.00;5015312;28;20719;-71
2021/10/21 03:53:12;;;;;;;0.30;0.30;;;;;;;8.09;99.90;97984.34;5032866;28;20048;-70
2021/10/21 03:55:41;;;;;;;0.30;0.30;;;;;;;8.09;100.00;97995.09;5032441;28;20110;-70
2021/10/21 03:58:07;;;;;;;0.30;0.30;;;;;;;8.06;99.83;97973.94;5014658;28;20041;-70
2021/10/21 04:00:33;;;;;;;0.30;0.30;;;;;;;8.12;99.56;97986.69;5014491;28;20069;-71
2021/10/21 04:02:59;;;;;;;0.30;0.30;;;;;;;8.07;99.33;97976.44;5031000;28;20049;-71
2021/10/21 04:05:25;;;;;;;0.30;0.30;;;;;;;8.17;99.22;97995.06;5030950;28;20060;-72
2021/10/21 04:07:51;;;;;;;0.30;0.30;;;;;;;8.18;99.08;97991.34;5014341;28;20136;-71
2021/10/21 04:10:17;;;;;;;0.30;0.30;;;;;;;8.19;99.19;97979.53;5030913;28;20041;-68
2021/10/21 04:12:43;;;;;;;0.30;0.30;;;;;;;8.19;98.83;97982.25;5014725;28;20104;-72
2021/10/21 04:15:10;;;;;;;0.30;0.30;;;;;;;8.21;98.74;97991.00;5031120;28;20070;-68
2021/10/21 04:17:36;;;;;;;0.30;0.30;;;;;;;8.26;98.25;97972.44;5032436;28;20053;-68
2021/10/21 04:20:04;;;;;;;0.30;0.30;;;;;;;8.27;98.29;97976.00;5031008;28;20041;-70
2021/10/21 04:22:30;;;;;;;0.30;0.30;;;;;;;8.29;98.08;97969.41;5030412;28;20053;-71
2021/10/21 04:24:56;;;;;;;0.30;0.30;;;;;;;8.32;98.04;97973.59;5014353;28;20373;-69
2021/10/21 04:27:21;;;;;;;0.30;0.30;;;;;;;8.33;97.48;97957.25;5031269;28;20045;-71
2021/10/21 04:29:47;;;;;;;0.30;0.30;;;;;;;8.37;97.47;97953.25;5031135;28;20073;-70
2021/10/21 04:32:13;;;;;;;0.30;0.30;;;;;;;8.32;97.33;97939.44;5015209;28;20045;-69
2021/10/21 04:34:39;;;;;;;0.30;0.30;;;;;;;8.42;97.38;97947.31;5032027;28;20569;-68
2021/10/21 04:37:04;;;;;;;0.30;0.30;;;;;;;8.48;97.08;97953.81;5013969;28;20053;-70
2021/10/21 04:39:30;;;;;;;0.30;0.30;;;;;;;8.50;96.60;97951.78;5014111;28;20383;-69
2021/10/21 04:41:56;;;;;;;0.30;0.30;;;;;;;8.50;96.62;97946.41;5031926;28;20091;-69
2021/10/21 04:44:22;;;;;;;0.30;0.30;;;;;;;8.53;96.51;97935.28;5031873;28;20464;-72
2021/10/21 04:46:48;;;;;;;0.30;0.30;;;;;;;8.53;96.43;97943.38;5030278;28;20045;-71
2021/10/21 04:49:14;;;;;;;0.30;0.30;;;;;;;8.57;96.31;97936.59;5030225;28;20557;-69
2021/10/21 04:51:40;;;;;;;0.40;0.40;;;;;;;8.57;96.33;97931.22;5013591;28;20049;-72
2021/10/21 04:54:05;;;;;;;0.30;0.30;;;;;;;8.61;95.97;97927.13;5013102;28;20045;-71
2021/10/21 04:56:31;;;;;;;0.30;0.30;;;;;;;8.59;96.14;97935.41;5014084;28;20045;-71
2021/10/21 04:58:57;;;;;;;0.30;0.30;;;;;;;8.63;95.92;97943.97;5030250;28;20414;-71
2021/10/21 05:01:23;;;;;;;0.30;0.30;;;;;;;8.65;95.77;97934.66;5031071;28;20178;-74
2021/10/21 05:03:50;;;;;;;0.30;0.30;;;;;;;8.69;95.49;97937.81;5030623;28;20183;-78
2021/10/21 05:06:16;;;;;;;0.30;0.30;;;;;;;8.66;95.65;97938.19;5031450;28;20292;-76
2021/10/21 05:08:42;;;;;;;0.30;0.30;;;;;;;8.72;95.28;97940.16;5029829;28;20141;-74
2021/10/21 05:11:07;;;;;;;0.30;0.30;;;;;;;8.71;95.51;97946.56;5029602;28;20182;-74
2021/10/21 05:13:33;;;;;;;0.30;0.30;;;;;;;8.78;95.46;97942.13;5013360;28;20045;-73
2021/10/21 05:15:59;;;;;;;0.30;0.30;;;;;;;8.80;95.29;97934.69;4996956;28;20416;-74
2021/10/21 05:18:25;;;;;;;0.30;0.30;;;;;;;8.80;95.38;97945.47;5029722;28;20049;-75
2021/10/21 05:20:51;;;;;;;0.30;0.30;;;;;;;8.81;95.48;97941.78;5022297;28;20048;-75
2021/10/21 05:23:18;;;;;;;0.30;0.30;;;;;;;8.82;95.63;97943.44;5050667;28;20544;-76
2021/10/21 05:25:45;;;;;;;0.30;0.30;;;;;;;8.79;95.39;97946.50;5027024;28;20049;-73
2021/10/21 05:28:11;;;;;;;0.30;0.30;;;;;;;8.81;95.56;97924.75;5027296;28;20444;-75
2021/10/21 05:30:38;;;;;;;0.30;0.30;;;;;;;8.83;95.82;97907.38;5031501;28;20041;-73
2021/10/21 05:33:03;;;;;;;0.30;0.30;;;;;;;8.84;95.74;97922.53;5025291;28;20044;-77
2021/10/21 05:35:30;;;;;;;0.30;0.30;;;;;;;8.87;95.89;97930.25;5022126;28;20057;-76
2021/10/21 05:37:56;;;;;;;0.30;0.30;;;;;;;8.89;95.90;97932.78;5014224;28;20037;-71
2021/10/21 05:40:22;;;;;;;0.30;0.30;;;;;;;8.87;95.79;97927.56;5027048;28;20041;-74
2021/10/21 05:42:48;;;;;;;0.30;0.30;;;;;;;8.90;96.07;97958.69;5025204;28;20674;-78
2021/10/21 05:45:14;;;;;;;0.30;0.30;;;;;;;8.93;96.14;97964.56;5021676;28;20466;-75
2021/10/21 05:47:41;;;;;;;0.30;0.30;;;;;;;8.96;96.25;97963.38;5052563;28;20521;-74
2021/10/21 05:50:09;;;;;;;0.30;0.30;;;;;;;8.97;96.37;97969.59;5024984;28;20512;-75
2021/10/21 05:52:35;;;;;;;0.30;0.30;;;;;;;8.99;96.10;97962.97;5014739;28;20045;-76
2021/10/21 05:55:02;;;;;;;0.30;0.30;;;;;;;9.00;96.21;97942.28;5014524;28;20052;-75
2021/10/21 05:57:28;;;;;;;0.30;0.30;;;;;;;9.06;96.11;97979.28;5017640;28;20049;-74
2021/10/21 05:59:54;;;;;;;0.30;0.30;;;;;;;9.08;95.98;97947.59;4986437;28;20046;-75
2021/10/21 06:02:20;;;;;;;0.30;0.30;;;;;;;9.11;95.94;97960.72;4995332;28;20052;-75
2021/10/21 06:04:46;;;;;;;0.30;0.30;;;;;;;9.11;96.23;97972.31;5010180;28;20056;-78
2021/10/21 06:07:12;;;;;;;0.30;0.30;;;;;;;9.10;96.11;97970.63;4997899;28;20033;-75
2021/10/21 06:09:38;;;;;;;0.30;0.30;;;;;;;9.11;96.05;97979.56;5004343;28;20030;-75
2021/10/21 06:12:05;;;;;;;0.30;0.30;;;;;;;9.09;96.60;97946.56;5001096;28;22081;-76
2021/10/21 06:14:31;;;;;;;0.30;0.30;;;;;;;9.09;96.62;97927.69;5040404;28;20093;-77
2021/10/21 06:16:58;;;;;;;0.30;0.30;;;;;;;9.10;97.18;97916.72;5023528;28;20069;-77
2021/10/21 06:19:24;;;;;;;0.30;0.30;;;;;;;9.10;97.82;97923.97;5038078;28;20122;-77
2021/10/21 06:21:57;;;;;;;0.30;0.30;;;;;;;9.08;98.30;97915.25;5023326;28;20252;-77
2021/10/21 06:24:25;;;;;;;0.40;0.40;;;;;;;9.09;98.53;97911.50;5014609;28;20443;-75
2021/10/21 06:26:51;;;;;;;0.30;0.30;;;;;;;9.10;99.05;97910.47;5011913;28;20116;-75
2021/10/21 06:29:17;;;;;;;0.30;0.30;;;;;;;9.05;99.21;97923.69;5017862;28;20451;-76
2021/10/21 06:31:46;;;;;;;0.30;0.30;;;;;;;9.11;98.71;97906.78;5003610;28;20041;-74
2021/10/21 06:34:12;;;;;;;0.30;0.30;;;;;;;9.15;98.27;97914.31;5028114;28;20131;-74
2021/10/21 06:36:38;;;;;;;0.30;0.30;;;;;;;9.17;97.98;97908.72;5028664;28;20203;-75
2021/10/21 06:39:05;;;;;;;0.30;0.30;;;;;;;9.16;98.44;97909.75;5006863;28;20053;-75
2021/10/21 06:41:30;;;;;;;0.30;0.30;;;;;;;9.21;98.06;97912.72;5028542;28;20466;-76
2021/10/21 06:43:56;;;;;;;0.30;0.30;;;;;;;9.23;97.97;97920.66;5028019;28;20056;-75
2021/10/21 06:46:22;;;;;;;0.30;0.30;;;;;;;9.24;98.02;97906.97;5010654;28;20046;-74
2021/10/21 06:48:48;;;;;;;0.38;0.38;;;;;;;9.27;98.00;97908.47;5011069;28;20160;-76
2021/10/21 06:51:14;;;;;;;0.30;0.30;;;;;;;9.22;98.28;97909.03;5010085;28;20037;-75
2021/10/21 06:53:40;;;;;;;0.30;0.30;;;;;;;9.25;98.21;97895.19;5028743;28;20136;-74
2021/10/21 06:56:06;;;;;;;0.30;0.30;;;;;;;9.24;98.22;97906.97;5010394;28;20128;-73
2021/10/21 06:58:33;;;;;;;0.30;0.30;;;;;;;9.24;98.17;97923.13;5027764;28;20784;-75
2021/10/21 07:00:59;;;;;;;0.30;0.30;;;;;;;9.27;98.46;97906.59;5007516;28;20034;-75
2021/10/21 07:03:25;;;;;;;0.30;0.30;;;;;;;9.31;98.42;97858.53;5026280;28;20053;-74
2021/10/21 07:05:52;;;;;;;0.40;0.40;;;;;;;9.35;97.80;97839.06;5026107;28;20037;-75
2021/10/21 07:08:20;;;;;;;0.30;0.30;;;;;;;9.46;97.34;97845.03;5026423;28;20445;-75
2021/10/21 07:10:46;;;;;;;0.30;0.30;;;;;;;9.42;97.22;97866.13;5023116;28;20524;-75
2021/10/21 07:13:12;;;;;;;0.30;0.30;;;;;;;9.45;97.24;97883.81;5010869;28;20073;-75
2021/10/21 07:15:37;;;;;;;0.30;0.30;;;;;;;9.40;97.36;97879.81;5028017;28;20460;-75
2021/10/21 07:18:04;;;;;;;0.30;0.30;;;;;;;9.44;97.13;97918.03;5013801;28;20328;-75
2021/10/21 07:20:30;;;;;;;0.30;0.30;;;;;;;9.47;97.43;97900.63;5030093;28;20044;-76
2021/10/21 07:22:56;;;;;;;0.30;0.30;;;;;;;9.50;96.69;97892.16;5013748;28;20045;-74
2021/10/21 07:25:31;;;;;;;0.30;0.30;;;;;;;9.56;96.40;97902.22;5013901;28;20083;-75
2021/10/21 07:27:58;;;;;;;0.30;0.30;;;;;;;9.60;96.67;97895.41;4998005;28;20068;-75
2021/10/21 07:30:26;;;;;;;0.30;0.30;;;;;;;9.61;95.52;97864.72;4997756;28;20041;-75
2021/10/21 07:32:52;;;;;;;0.30;0.30;;;;;;;9.63;95.55;97885.09;5028471;28;20173;-76
2021/10/21 07:35:18;;;;;;;0.30;0.30;;;;;;;9.73;95.37;97901.00;5014176;28;20056;-76
2021/10/21 07:37:44;;;;;;;0.30;0.30;;;;;;;9.77;95.13;97918.47;4995739;28;20054;-75
2021/10/21 07:40:11;;;;;;;0.30;0.30;;;;;;;9.82;94.97;97921.44;4997193;28;20037;-75
2021/10/21 07:42:38;;;;;;;0.30;0.30;;;;;;;9.84;94.39;97907.75;5025294;28;20722;-80
2021/10/21 07:45:05;;;;;;;0.30;0.30;;;;;;;9.89;94.20;97906.16;5029715;28;20497;-74
2021/10/21 07:47:30;;;;;;;0.30;0.30;;;;;;;9.90;94.26;97904.28;5026174;28;20041;-76
2021/10/21 07:49:57;;;;;;;0.30;0.30;;;;;;;9.96;93.69;97916.19;4974837;28;20638;-76
2021/10/21 07:52:24;;;;;;;0.30;0.30;;;;;;;10.00;93.30;97918.31;5031270;28;20049;-75
2021/10/21 07:54:49;;;;;;;0.30;0.30;;;;;;;10.02;93.22;97920.81;5041610;28;20042;-75
2021/10/21 07:57:18;;;;;;;0.30;0.30;;;;;;;10.03;93.41;97927.91;5013476;28;20152;-76
2021/10/21 07:59:44;;;;;;;0.30;0.30;;;;;;;10.07;92.52;97957.03;5031172;28;20060;-75
2021/10/21 08:02:10;;;;;;;0.30;0.30;;;;;;;10.09;92.47;97949.59;5029711;28;20485;-69
2021/10/21 08:04:36;;;;;;;0.30;0.30;;;;;;;10.09;92.32;97937.94;5028366;28;20398;-69
2021/10/21 08:07:03;;;;;;;0.30;0.30;;;;;;;10.15;92.11;97943.41;5021326;28;20394;-68
2021/10/21 08:09:30;;;;;;;0.30;0.30;;;;;;;10.15;92.30;97945.28;5042074;28;20129;-72
2021/10/21 08:12:00;;;;;;;0.30;0.30;;;;;;;10.21;91.86;97946.38;5003570;28;20077;-68
2021/10/21 08:14:27;;;;;;;0.30;0.30;;;;;;;10.23;91.98;97950.56;5001513;28;20042;-66
2021/10/21 08:16:52;;;;;;;0.30;0.30;;;;;;;10.27;91.71;97935.66;5016523;28;20103;-66
2021/10/21 08:19:19;;;;;;;0.30;0.30;;;;;;;10.28;91.47;97947.34;5016709;28;20045;-69
2021/10/21 08:21:47;;;;;;;0.30;0.30;;;;;;;10.27;91.40;97941.06;4997816;28;20042;-69
2021/10/21 08:24:14;;;;;;;0.30;0.30;;;;;;;10.27;91.29;97941.06;5015089;28;20686;-69
2021/10/21 08:26:41;;;;;;;0.30;0.30;;;;;;;10.27;91.03;97922.16;4985409;28;20148;-76
2021/10/21 08:29:07;;;;;;;0.30;0.30;;;;;;;10.29;91.21;97911.19;4994976;28;20046;-71
2021/10/21 08:31:34;;;;;;;0.30;0.30;;;;;;;10.27;91.28;97903.25;4994330;28;20048;-70
2021/10/21 08:34:00;;;;;;;0.30;0.30;;;;;;;10.28;91.18;97899.56;5010279;28;20128;-69
2021/10/21 08:46:24;;;;;;;0.30;0.30;;;;;;;10.50;90.22;97940.09;5034576;28;20075;-71
2021/10/21 08:49:04;;;;;;;0.30;0.30;;;;;;;10.51;89.88;97937.16;5012930;28;20075;-72
2021/10/21 08:51:32;;;;;;;0.30;0.30;;;;;;;10.53;89.80;97931.56;5025587;28;20053;-69
2021/10/21 08:54:00;;;;;;;0.30;0.30;;;;;;;10.54;89.61;97901.66;5007824;28;20509;-71
2021/10/21 08:56:27;;;;;;;0.30;0.30;;;;;;;10.60;89.44;97908.13;5035049;28;20504;-71
2021/10/21 08:58:54;;;;;;;0.30;0.30;;;;;;;10.64;89.62;97904.06;5017235;28;20052;-70
2021/10/21 09:04:35;;;;;;;0.30;0.30;;;;;;;10.76;88.28;97885.44;5057589;28;20068;-72
2021/10/21 09:09:45;;;;;;;0.30;0.30;;;;;;;10.75;88.39;97884.59;5095243;28;20094;-71
2021/10/21 09:12:19;;;;;;;0.30;0.30;;;;;;;10.85;88.40;97901.28;5085695;28;20048;-71
2021/10/21 09:14:47;;;;;;;0.30;0.30;;;;;;;10.84;87.71;97904.19;5059103;28;20423;-68
2021/10/21 09:17:14;;;;;;;0.30;0.30;;;;;;;10.97;87.49;97903.44;5069248;28;20076;-71
2021/10/21 09:19:41;;;;;;;0.30;0.30;;;;;;;11.10;86.94;97925.19;5063520;28;20080;-73
2021/10/21 09:22:21;;;;;;;0.30;0.30;;;;;;;11.09;86.19;97918.13;5071815;28;20062;-69
2021/10/21 09:24:48;;;;;;;0.30;0.30;;;;;;;11.10;86.46;97914.38;5031635;28;20064;-75
2021/10/21 09:27:17;;;;;;;0.30;0.30;;;;;;;11.23;85.53;97919.06;5013795;28;20124;-65
2021/10/21 09:29:48;;;;;;;0.30;0.30;;;;;;;11.39;85.28;97923.31;5087372;28;20049;-74
2021/10/21 09:32:19;;;;;;;0.40;0.40;;;;;;;11.51;84.41;97921.69;5093289;28;20044;-74
2021/10/21 09:34:53;;;;;;;0.30;0.30;;;;;;;11.54;84.00;97926.72;5090098;28;20049;-71
2021/10/21 09:37:37;;;;;;;0.40;0.40;;;;;;;11.93;82.48;97919.88;5052396;28;20067;-72
2021/10/21 09:40:07;;;;;;;0.40;0.40;;;;;;;12.09;81.47;97930.31;5036484;28;20507;-73
2021/10/21 09:42:35;;;;;;;0.30;0.30;;;;;;;12.53;79.83;97947.94;5056682;28;20198;-75
2021/10/21 09:45:13;;;;;;;0.30;0.30;;;;;;;12.34;80.18;97943.31;5072512;28;20052;-73
2021/10/21 09:47:43;;;;;;;0.30;0.30;;;;;;;12.19;80.63;97925.34;5017106;28;20095;-76
2021/10/21 09:50:18;;;;;;;0.30;0.30;;;;;;;11.95;81.74;97936.72;5054216;28;20040;-73
2021/10/21 09:53:13;;;;;;;0.30;0.30;;;;;;;11.81;82.26;97927.69;5063492;28;20496;-73
2021/10/21 09:55:41;;;;;;;0.30;0.30;;;;;;;11.94;81.94;97922.34;5041632;28;20527;-76
2021/10/21 09:58:10;;;;;;;0.30;0.30;;;;;;;11.87;82.31;97928.78;5064449;28;20140;-70
2021/10/21 10:00:37;;;;;;;0.30;0.30;;;;;;;11.81;82.84;97928.53;5063279;28;20492;-69
2021/10/21 10:03:21;;;;;;;0.30;0.30;;;;;;;11.93;82.10;97917.16;5062794;28;20102;-71
2021/10/21 10:05:54;;;;;;;;;;;;;;;12.12;82.00;97919.09;5042519;28;20056;-73
2021/10/21 10:08:21;;;;;;;0.40;0.40;;;;;;;12.25;81.12;97915.59;5036885;28;19924;-73
2021/10/21 10:10:49;;;;;;;0.50;0.50;;;;;;;12.83;79.07;97920.44;5044588;28;20071;-75
2021/10/21 10:13:17;;;;;;;0.40;0.40;;;;;;;13.34;76.52;97912.50;5044495;28;20052;-72
2021/10/21 10:15:44;;;;;;;0.50;0.50;;;;;;;14.88;70.31;97924.34;5046645;28;20049;-73
2021/10/21 10:18:31;;;;;;;0.85;0.85;;;;;;;15.56;68.03;97920.78;5030508;28;20041;-74
2021/10/21 10:21:00;;;;;;;1.10;1.10;;;;;;;17.19;62.14;97940.88;5010929;28;20535;-71
2021/10/21 10:23:26;;;;;;;0.43;0.43;;;;;;;16.97;62.09;97933.25;5041060;28;20080;-72
2021/10/21 10:25:52;;;;;;;0.80;0.80;;;;;;;17.64;60.97;97932.91;5038821;28;20079;-72
2021/10/21 10:28:19;;;;;;;0.20;0.20;;;;;;;17.36;60.70;97952.75;5041804;28;20063;-73
2021/10/21 10:30:55;;;;;;;0.20;0.20;;;;;;;16.43;63.61;97942.41;5008996;28;20111;-76
2021/10/21 10:33:34;;;;;;;0.20;0.20;;;;;;;15.59;66.84;97945.69;5025853;28;20114;-75
2021/10/21 10:36:22;;;;;;;0.20;0.20;;;;;;;14.80;69.63;97930.88;5053168;28;20120;-74
2021/10/21 10:38:48;;;;;;;0.20;0.20;;;;;;;14.26;71.66;97939.56;5030155;28;20052;-74
2021/10/21 10:41:43;;;;;;;0.20;0.20;;;;;;;14.09;72.61;97948.22;5011854;28;20048;-73
2021/10/21 10:44:09;;;;;;;0.20;0.20;;;;;;;13.91;73.59;97939.94;5049019;28;20439;-73
2021/10/21 10:46:49;;;;;;;0.20;0.20;;;;;;;13.61;75.03;97943.16;5074185;28;20057;-73
2021/10/21 10:49:36;;;;;;;0.30;0.30;;;;;;;13.66;74.94;97937.91;5018456;28;20049;-72
2021/10/21 10:52:05;;;;;;;0.30;0.30;;;;;;;13.75;74.74;97936.66;5053350;28;20513;-69
2021/10/21 10:54:43;;;;;;;0.30;0.30;;;;;;;13.74;74.31;97934.97;5045803;28;20052;-67
2021/10/21 10:57:15;;;;;;;0.30;0.30;;;;;;;13.90;74.20;97932.84;5033940;28;20052;-68
2021/10/21 10:59:42;;;;;;;0.30;0.30;;;;;;;13.89;73.95;97920.28;5049946;28;20063;-68
2021/10/21 11:02:27;;;;;;;0.30;0.30;;;;;;;13.77;74.12;97922.00;5051198;28;20080;-68
2021/10/21 11:04:53;;;;;;;0.30;0.30;;;;;;;13.96;74.09;97915.66;5061382;28;20563;-67
2021/10/21 11:07:23;;;;;;;0.30;0.30;;;;;;;14.19;72.98;97931.47;5023038;28;20053;-68
2021/10/21 11:09:51;;;;;;;0.40;0.40;;;;;;;14.58;71.45;97921.41;5015679;28;20065;-69
2021/10/21 11:13:00;;;;;;;0.20;0.20;;;;;;;14.58;71.27;97907.81;5041275;23;20104;-68
2021/10/21 11:15:32;;;;;;;0.20;0.20;;;;;;;14.17;72.61;97915.34;4984462;28;20153;-68
2021/10/21 11:17:59;;;;;;;0.30;0.30;;;;;;;14.06;73.47;97926.91;4954736;28;20444;-68
2021/10/21 11:20:28;;;;;;;0.20;0.20;;;;;;;14.03;73.47;97921.06;4981721;28;20394;-69
2021/10/21 11:23:26;;;;;;;0.30;0.30;;;;;;;14.06;73.77;97926.06;5003702;28;20165;-67
2021/10/21 11:26:01;;;;;;;0.20;0.20;;;;;;;13.89;74.03;97920.28;4940708;28;20107;-69
2021/10/21 11:28:27;;;;;;;0.20;0.20;;;;;;;13.98;74.14;97919.00;4950797;28;20084;-68
2021/10/21 11:30:53;;;;;;;0.20;0.20;;;;;;;13.86;74.25;97928.88;4996393;28;20058;-67
2021/10/21 11:33:19;;;;;;;0.20;0.20;;;;;;;13.82;74.52;97933.06;4963986;28;20054;-68
2021/10/21 11:35:45;;;;;;;0.20;0.20;;;;;;;13.69;74.98;97921.19;4967495;28;20061;-67
2021/10/21 11:38:17;;;;;;;0.20;0.20;;;;;;;13.68;74.82;97929.56;4978094;28;20497;-70
2021/10/21 11:40:45;;;;;;;0.20;0.20;;;;;;;13.72;75.46;97931.63;4974993;28;20062;-68
2021/10/21 11:43:22;;;;;;;0.20;0.20;;;;;;;13.62;75.25;97942.09;4977994;28;20137;-72
2021/10/21 11:45:57;;;;;;;0.20;0.20;;;;;;;13.61;75.09;97943.16;4974782;28;20322;-74
2021/10/21 11:48:34;;;;;;;0.30;0.30;;;;;;;13.46;75.84;97948.00;4974983;28;20070;-74
2021/10/21 11:51:03;;;;;;;0.20;0.20;;;;;;;13.42;75.69;97947.59;4988696;28;20046;-71
2021/10/21 11:53:31;;;;;;;0.20;0.20;;;;;;;13.56;75.54;97959.22;4994364;28;20141;-71
2021/10/21 11:55:57;;;;;;;0.20;0.20;;;;;;;13.55;75.59;97959.47;4962090;28;20043;-70